sensor_id;sensor_type;location;lat;lon;timestamp;P1;durP1;ratioP1;P2;durP2;ratioP2
22881;SDS011;11608;50.894;5.296;2022-09-13T00:00:47;25.58;;;23.70;;
22881;SDS011;11608;50.894;5.296;2022-09-13T00:03:13;26.35;;;24.35;;
22881;SDS011;11608;50.894;5.296;2022-09-13T00:05:39;26.30;;;24.38;;
22881;SDS011;11608;50.894;5.296;2022-09-13T00:08:06;27.55;;;25.55;;
22881;SDS011;11608;50.894;5.296;2022-09-13T00:10:33;27.02;;;25.10;;
22881;SDS011;11608;50.894;5.296;2022-09-13T00:12:59;26.75;;;24.80;;
22881;SDS011;11608;50.894;5.296;2022-09-13T00:15:26;25.30;;;23.50;;
22881;SDS011;11608;50.894;5.296;2022-09-13T00:17:52;25.35;;;23.55;;
22881;SDS011;11608;50.894;5.296;2022-09-13T00:20:18;25.60;;;23.85;;
22881;SDS011;11608;50.894;5.296;2022-09-13T00:22:44;25.75;;;23.92;;
22881;SDS011;11608;50.894;5.296;2022-09-13T00:25:10;25.92;;;24.13;;
22881;SDS011;11608;50.894;5.296;2022-09-13T00:27:37;26.83;;;24.52;;
22881;SDS011;11608;50.894;5.296;2022-09-13T00:30:03;25.08;;;23.30;;
22881;SDS011;11608;50.894;5.296;2022-09-13T00:32:30;25.52;;;23.55;;
22881;SDS011;11608;50.894;5.296;2022-09-13T00:34:56;27.02;;;24.98;;
22881;SDS011;11608;50.894;5.296;2022-09-13T00:37:22;26.00;;;23.95;;
22881;SDS011;11608;50.894;5.296;2022-09-13T00:39:49;24.58;;;22.60;;
22881;SDS011;11608;50.894;5.296;2022-09-13T00:42:15;24.15;;;22.55;;
22881;SDS011;11608;50.894;5.296;2022-09-13T00:44:52;26.77;;;24.73;;
22881;SDS011;11608;50.894;5.296;2022-09-13T00:47:24;27.23;;;25.10;;
22881;SDS011;11608;50.894;5.296;2022-09-13T00:49:52;26.52;;;24.67;;
22881;SDS011;11608;50.894;5.296;2022-09-13T00:52:21;27.65;;;25.58;;
22881;SDS011;11608;50.894;5.296;2022-09-13T00:54:50;26.63;;;24.80;;
22881;SDS011;11608;50.894;5.296;2022-09-13T00:57:17;27.15;;;25.00;;
22881;SDS011;11608;50.894;5.296;2022-09-13T00:59:46;25.60;;;23.67;;
22881;SDS011;11608;50.894;5.296;2022-09-13T01:02:14;26.15;;;24.25;;
22881;SDS011;11608;50.894;5.296;2022-09-13T01:04:40;25.45;;;23.52;;
22881;SDS011;11608;50.894;5.296;2022-09-13T01:07:08;25.30;;;23.50;;
22881;SDS011;11608;50.894;5.296;2022-09-13T01:09:37;25.42;;;23.52;;
22881;SDS011;11608;50.894;5.296;2022-09-13T01:12:08;26.10;;;24.30;;
22881;SDS011;11608;50.894;5.296;2022-09-13T01:14:38;26.08;;;24.13;;
22881;SDS011;11608;50.894;5.296;2022-09-13T01:17:04;25.92;;;24.10;;
22881;SDS011;11608;50.894;5.296;2022-09-13T01:19:30;26.52;;;24.63;;
22881;SDS011;11608;50.894;5.296;2022-09-13T01:30:19;25.67;;;23.88;;
22881;SDS011;11608;50.894;5.296;2022-09-13T01:32:53;26.48;;;24.35;;
22881;SDS011;11608;50.894;5.296;2022-09-13T01:38:05;25.60;;;23.85;;
22881;SDS011;11608;50.894;5.296;2022-09-13T01:46:03;25.48;;;23.52;;
22881;SDS011;11608;50.894;5.296;2022-09-13T01:51:01;26.48;;;24.45;;
22881;SDS011;11608;50.894;5.296;2022-09-13T01:53:31;26.42;;;24.40;;
22881;SDS011;11608;50.894;5.296;2022-09-13T02:01:30;26.48;;;24.50;;
22881;SDS011;11608;50.894;5.296;2022-09-13T02:04:21;25.60;;;23.90;;
22881;SDS011;11608;50.894;5.296;2022-09-13T02:06:47;26.58;;;24.60;;
22881;SDS011;11608;50.894;5.296;2022-09-13T02:09:15;26.50;;;24.30;;
22881;SDS011;11608;50.894;5.296;2022-09-13T02:11:44;25.73;;;24.02;;
22881;SDS011;11608;50.894;5.296;2022-09-13T02:14:15;25.02;;;23.15;;
22881;SDS011;11608;50.894;5.296;2022-09-13T02:16:47;25.17;;;23.35;;
22881;SDS011;11608;50.894;5.296;2022-09-13T02:19:18;23.98;;;22.25;;
22881;SDS011;11608;50.894;5.296;2022-09-13T02:21:45;24.50;;;22.52;;
22881;SDS011;11608;50.894;5.296;2022-09-13T02:24:14;23.05;;;21.45;;
22881;SDS011;11608;50.894;5.296;2022-09-13T02:26:41;24.05;;;22.45;;
22881;SDS011;11608;50.894;5.296;2022-09-13T02:29:10;24.50;;;22.92;;
22881;SDS011;11608;50.894;5.296;2022-09-13T02:31:48;23.90;;;22.27;;
22881;SDS011;11608;50.894;5.296;2022-09-13T02:35:00;23.38;;;21.85;;
22881;SDS011;11608;50.894;5.296;2022-09-13T02:37:07;23.42;;;21.60;;
22881;SDS011;11608;50.894;5.296;2022-09-13T02:39:33;23.05;;;21.55;;
22881;SDS011;11608;50.894;5.296;2022-09-13T02:44:30;23.20;;;21.60;;
22881;SDS011;11608;50.894;5.296;2022-09-13T02:47:09;24.85;;;23.08;;
22881;SDS011;11608;50.894;5.296;2022-09-13T02:49:57;25.05;;;23.27;;
22881;SDS011;11608;50.894;5.296;2022-09-13T02:54:57;25.15;;;23.42;;
22881;SDS011;11608;50.894;5.296;2022-09-13T02:57:27;24.92;;;23.20;;
22881;SDS011;11608;50.894;5.296;2022-09-13T02:59:55;25.23;;;23.42;;
22881;SDS011;11608;50.894;5.296;2022-09-13T03:02:21;25.50;;;23.63;;
22881;SDS011;11608;50.894;5.296;2022-09-13T03:04:51;25.63;;;23.70;;
22881;SDS011;11608;50.894;5.296;2022-09-13T03:07:17;26.02;;;24.30;;
22881;SDS011;11608;50.894;5.296;2022-09-13T03:09:48;26.20;;;24.20;;
22881;SDS011;11608;50.894;5.296;2022-09-13T03:12:23;26.83;;;24.40;;
22881;SDS011;11608;50.894;5.296;2022-09-13T03:17:55;26.42;;;24.73;;
22881;SDS011;11608;50.894;5.296;2022-09-13T03:22:58;25.95;;;24.15;;
22881;SDS011;11608;50.894;5.296;2022-09-13T03:28:13;26.30;;;24.33;;
22881;SDS011;11608;50.894;5.296;2022-09-13T03:30:43;26.42;;;24.52;;
22881;SDS011;11608;50.894;5.296;2022-09-13T03:35:39;25.92;;;23.73;;
22881;SDS011;11608;50.894;5.296;2022-09-13T03:38:14;26.75;;;24.92;;
22881;SDS011;11608;50.894;5.296;2022-09-13T03:45:38;26.60;;;24.52;;
22881;SDS011;11608;50.894;5.296;2022-09-13T03:48:05;25.40;;;23.60;;
22881;SDS011;11608;50.894;5.296;2022-09-13T03:50:32;26.17;;;24.48;;
22881;SDS011;11608;50.894;5.296;2022-09-13T03:53:03;26.13;;;24.33;;
22881;SDS011;11608;50.894;5.296;2022-09-13T03:55:31;25.95;;;24.15;;
22881;SDS011;11608;50.894;5.296;2022-09-13T03:57:58;25.42;;;23.63;;
22881;SDS011;11608;50.894;5.296;2022-09-13T04:00:25;26.85;;;25.05;;
22881;SDS011;11608;50.894;5.296;2022-09-13T04:02:51;26.13;;;24.50;;
22881;SDS011;11608;50.894;5.296;2022-09-13T04:05:17;25.88;;;24.15;;
22881;SDS011;11608;50.894;5.296;2022-09-13T04:07:43;27.02;;;25.15;;
22881;SDS011;11608;50.894;5.296;2022-09-13T04:10:09;26.90;;;25.08;;
22881;SDS011;11608;50.894;5.296;2022-09-13T04:12:36;26.65;;;24.60;;
22881;SDS011;11608;50.894;5.296;2022-09-13T04:15:02;25.33;;;23.55;;
22881;SDS011;11608;50.894;5.296;2022-09-13T04:17:28;26.45;;;24.65;;
22881;SDS011;11608;50.894;5.296;2022-09-13T04:19:54;26.00;;;24.40;;
22881;SDS011;11608;50.894;5.296;2022-09-13T04:22:20;28.40;;;26.17;;
22881;SDS011;11608;50.894;5.296;2022-09-13T04:24:46;27.92;;;25.85;;
22881;SDS011;11608;50.894;5.296;2022-09-13T04:27:12;27.50;;;24.90;;
22881;SDS011;11608;50.894;5.296;2022-09-13T04:29:38;27.60;;;25.15;;
22881;SDS011;11608;50.894;5.296;2022-09-13T04:32:04;26.98;;;24.92;;
22881;SDS011;11608;50.894;5.296;2022-09-13T04:34:30;27.17;;;25.08;;
22881;SDS011;11608;50.894;5.296;2022-09-13T04:36:57;26.17;;;24.27;;
22881;SDS011;11608;50.894;5.296;2022-09-13T04:39:28;24.88;;;22.88;;
22881;SDS011;11608;50.894;5.296;2022-09-13T04:41:54;25.42;;;23.52;;
22881;SDS011;11608;50.894;5.296;2022-09-13T04:44:20;25.35;;;23.33;;
22881;SDS011;11608;50.894;5.296;2022-09-13T04:46:48;24.25;;;22.50;;
22881;SDS011;11608;50.894;5.296;2022-09-13T04:49:16;24.15;;;22.45;;
22881;SDS011;11608;50.894;5.296;2022-09-13T04:51:44;25.50;;;23.65;;
22881;SDS011;11608;50.894;5.296;2022-09-13T04:54:10;27.05;;;24.92;;
22881;SDS011;11608;50.894;5.296;2022-09-13T04:56:36;26.58;;;24.75;;
22881;SDS011;11608;50.894;5.296;2022-09-13T04:59:02;26.63;;;24.63;;
22881;SDS011;11608;50.894;5.296;2022-09-13T05:01:28;25.60;;;23.75;;
22881;SDS011;11608;50.894;5.296;2022-09-13T05:03:54;26.80;;;24.77;;
22881;SDS011;11608;50.894;5.296;2022-09-13T05:06:21;26.40;;;24.35;;
22881;SDS011;11608;50.894;5.296;2022-09-13T05:08:50;25.35;;;23.45;;
22881;SDS011;11608;50.894;5.296;2022-09-13T05:11:19;25.63;;;23.70;;
22881;SDS011;11608;50.894;5.296;2022-09-13T05:13:47;25.63;;;23.73;;
22881;SDS011;11608;50.894;5.296;2022-09-13T05:16:17;25.13;;;23.33;;
22881;SDS011;11608;50.894;5.296;2022-09-13T05:18:43;24.60;;;22.90;;
22881;SDS011;11608;50.894;5.296;2022-09-13T05:21:09;25.48;;;23.67;;
22881;SDS011;11608;50.894;5.296;2022-09-13T05:23:35;25.05;;;23.35;;
22881;SDS011;11608;50.894;5.296;2022-09-13T05:26:03;23.35;;;21.65;;
22881;SDS011;11608;50.894;5.296;2022-09-13T05:28:31;23.58;;;21.88;;
22881;SDS011;11608;50.894;5.296;2022-09-13T05:30:58;26.10;;;24.08;;
22881;SDS011;11608;50.894;5.296;2022-09-13T05:33:25;25.88;;;23.77;;
22881;SDS011;11608;50.894;5.296;2022-09-13T05:35:51;24.73;;;22.92;;
22881;SDS011;11608;50.894;5.296;2022-09-13T05:38:17;24.88;;;23.17;;
22881;SDS011;11608;50.894;5.296;2022-09-13T05:40:43;25.95;;;23.98;;
22881;SDS011;11608;50.894;5.296;2022-09-13T05:43:10;25.73;;;23.92;;
22881;SDS011;11608;50.894;5.296;2022-09-13T05:45:36;26.48;;;24.25;;
22881;SDS011;11608;50.894;5.296;2022-09-13T05:48:02;24.90;;;22.83;;
22881;SDS011;11608;50.894;5.296;2022-09-13T05:50:28;24.35;;;22.67;;
22881;SDS011;11608;50.894;5.296;2022-09-13T05:52:54;24.33;;;22.45;;
22881;SDS011;11608;50.894;5.296;2022-09-13T05:55:21;24.73;;;22.85;;
22881;SDS011;11608;50.894;5.296;2022-09-13T05:57:47;24.83;;;22.85;;
22881;SDS011;11608;50.894;5.296;2022-09-13T06:00:14;25.38;;;23.02;;
22881;SDS011;11608;50.894;5.296;2022-09-13T06:02:40;25.05;;;22.98;;
22881;SDS011;11608;50.894;5.296;2022-09-13T06:05:07;24.65;;;22.77;;
22881;SDS011;11608;50.894;5.296;2022-09-13T06:07:34;24.25;;;22.40;;
22881;SDS011;11608;50.894;5.296;2022-09-13T06:10:01;23.92;;;22.13;;
22881;SDS011;11608;50.894;5.296;2022-09-13T06:12:27;24.63;;;22.85;;
22881;SDS011;11608;50.894;5.296;2022-09-13T06:14:53;24.98;;;22.98;;
22881;SDS011;11608;50.894;5.296;2022-09-13T06:17:19;25.52;;;23.42;;
22881;SDS011;11608;50.894;5.296;2022-09-13T06:19:45;25.35;;;23.50;;
22881;SDS011;11608;50.894;5.296;2022-09-13T06:22:11;26.00;;;23.90;;
22881;SDS011;11608;50.894;5.296;2022-09-13T06:24:37;25.55;;;23.63;;
22881;SDS011;11608;50.894;5.296;2022-09-13T06:27:03;25.98;;;24.13;;
22881;SDS011;11608;50.894;5.296;2022-09-13T06:29:29;25.45;;;23.55;;
22881;SDS011;11608;50.894;5.296;2022-09-13T06:31:55;25.73;;;23.80;;
22881;SDS011;11608;50.894;5.296;2022-09-13T06:34:22;25.92;;;23.85;;
22881;SDS011;11608;50.894;5.296;2022-09-13T06:36:48;26.05;;;24.15;;
22881;SDS011;11608;50.894;5.296;2022-09-13T06:39:14;25.52;;;23.30;;
22881;SDS011;11608;50.894;5.296;2022-09-13T06:41:40;25.80;;;23.83;;
22881;SDS011;11608;50.894;5.296;2022-09-13T06:44:06;24.70;;;22.80;;
22881;SDS011;11608;50.894;5.296;2022-09-13T06:46:34;27.17;;;24.63;;
22881;SDS011;11608;50.894;5.296;2022-09-13T06:49:01;26.13;;;23.88;;
22881;SDS011;11608;50.894;5.296;2022-09-13T06:51:28;26.25;;;24.23;;
22881;SDS011;11608;50.894;5.296;2022-09-13T06:53:55;25.52;;;23.42;;
22881;SDS011;11608;50.894;5.296;2022-09-13T06:56:22;26.33;;;24.23;;
22881;SDS011;11608;50.894;5.296;2022-09-13T06:58:49;27.88;;;25.77;;
22881;SDS011;11608;50.894;5.296;2022-09-13T07:01:17;28.27;;;25.77;;
22881;SDS011;11608;50.894;5.296;2022-09-13T07:03:44;27.60;;;25.40;;
22881;SDS011;11608;50.894;5.296;2022-09-13T07:08:37;29.05;;;25.60;;
22881;SDS011;11608;50.894;5.296;2022-09-13T07:11:03;26.52;;;24.27;;
22881;SDS011;11608;50.894;5.296;2022-09-13T07:13:29;25.95;;;23.75;;
22881;SDS011;11608;50.894;5.296;2022-09-13T07:15:55;26.85;;;24.75;;
22881;SDS011;11608;50.894;5.296;2022-09-13T07:18:21;27.40;;;25.17;;
22881;SDS011;11608;50.894;5.296;2022-09-13T07:20:47;28.83;;;25.92;;
22881;SDS011;11608;50.894;5.296;2022-09-13T07:23:13;27.25;;;25.25;;
22881;SDS011;11608;50.894;5.296;2022-09-13T07:25:39;27.42;;;25.33;;
22881;SDS011;11608;50.894;5.296;2022-09-13T07:28:05;28.30;;;25.77;;
22881;SDS011;11608;50.894;5.296;2022-09-13T07:30:32;27.70;;;25.58;;
22881;SDS011;11608;50.894;5.296;2022-09-13T07:32:58;28.48;;;26.20;;
22881;SDS011;11608;50.894;5.296;2022-09-13T07:35:24;27.95;;;25.85;;
22881;SDS011;11608;50.894;5.296;2022-09-13T07:37:50;28.58;;;26.10;;
22881;SDS011;11608;50.894;5.296;2022-09-13T07:40:16;27.83;;;25.52;;
22881;SDS011;11608;50.894;5.296;2022-09-13T07:42:42;29.42;;;27.15;;
22881;SDS011;11608;50.894;5.296;2022-09-13T07:45:08;27.67;;;25.58;;
22881;SDS011;11608;50.894;5.296;2022-09-13T07:47:36;28.05;;;25.75;;
22881;SDS011;11608;50.894;5.296;2022-09-13T07:50:03;26.25;;;24.35;;
22881;SDS011;11608;50.894;5.296;2022-09-13T07:52:29;27.70;;;24.88;;
22881;SDS011;11608;50.894;5.296;2022-09-13T07:54:55;26.70;;;24.63;;
22881;SDS011;11608;50.894;5.296;2022-09-13T07:57:21;26.70;;;24.80;;
22881;SDS011;11608;50.894;5.296;2022-09-13T07:59:47;25.35;;;23.58;;
22881;SDS011;11608;50.894;5.296;2022-09-13T08:02:13;25.80;;;23.90;;
22881;SDS011;11608;50.894;5.296;2022-09-13T08:04:40;26.52;;;24.52;;
22881;SDS011;11608;50.894;5.296;2022-09-13T08:07:06;25.88;;;23.65;;
22881;SDS011;11608;50.894;5.296;2022-09-13T08:09:32;25.58;;;23.27;;
22881;SDS011;11608;50.894;5.296;2022-09-13T08:11:58;25.35;;;23.42;;
22881;SDS011;11608;50.894;5.296;2022-09-13T08:14:24;24.95;;;22.90;;
22881;SDS011;11608;50.894;5.296;2022-09-13T08:16:53;24.65;;;22.58;;
22881;SDS011;11608;50.894;5.296;2022-09-13T08:19:20;25.77;;;23.60;;
22881;SDS011;11608;50.894;5.296;2022-09-13T08:21:46;26.10;;;24.10;;
22881;SDS011;11608;50.894;5.296;2022-09-13T08:24:16;25.33;;;23.42;;
22881;SDS011;11608;50.894;5.296;2022-09-13T08:26:42;24.88;;;23.17;;
22881;SDS011;11608;50.894;5.296;2022-09-13T08:29:09;25.48;;;23.15;;
22881;SDS011;11608;50.894;5.296;2022-09-13T08:31:36;24.92;;;22.98;;
22881;SDS011;11608;50.894;5.296;2022-09-13T08:34:02;25.02;;;23.23;;
22881;SDS011;11608;50.894;5.296;2022-09-13T08:36:28;24.67;;;22.77;;
22881;SDS011;11608;50.894;5.296;2022-09-13T08:38:55;23.98;;;21.90;;
22881;SDS011;11608;50.894;5.296;2022-09-13T08:46:34;25.08;;;23.20;;
22881;SDS011;11608;50.894;5.296;2022-09-13T08:49:12;25.75;;;23.70;;
22881;SDS011;11608;50.894;5.296;2022-09-13T08:51:44;25.13;;;23.42;;
22881;SDS011;11608;50.894;5.296;2022-09-13T08:54:11;25.13;;;23.35;;
22881;SDS011;11608;50.894;5.296;2022-09-13T08:56:51;24.45;;;22.38;;
22881;SDS011;11608;50.894;5.296;2022-09-13T09:05:18;23.33;;;21.83;;
22881;SDS011;11608;50.894;5.296;2022-09-13T09:07:44;23.83;;;22.17;;
22881;SDS011;11608;50.894;5.296;2022-09-13T09:10:18;24.60;;;23.00;;
22881;SDS011;11608;50.894;5.296;2022-09-13T09:12:46;24.00;;;22.30;;
22881;SDS011;11608;50.894;5.296;2022-09-13T09:17:49;23.25;;;21.40;;
22881;SDS011;11608;50.894;5.296;2022-09-13T09:22:59;24.67;;;22.77;;
22881;SDS011;11608;50.894;5.296;2022-09-13T09:25:26;23.88;;;22.08;;
22881;SDS011;11608;50.894;5.296;2022-09-13T09:27:52;24.10;;;22.40;;
22881;SDS011;11608;50.894;5.296;2022-09-13T09:30:18;23.02;;;21.42;;
22881;SDS011;11608;50.894;5.296;2022-09-13T09:40:37;22.45;;;20.70;;
22881;SDS011;11608;50.894;5.296;2022-09-13T09:43:38;22.52;;;20.92;;
22881;SDS011;11608;50.894;5.296;2022-09-13T09:45:57;22.77;;;20.98;;
22881;SDS011;11608;50.894;5.296;2022-09-13T09:48:26;24.10;;;22.35;;
22881;SDS011;11608;50.894;5.296;2022-09-13T09:50:54;23.88;;;21.90;;
22881;SDS011;11608;50.894;5.296;2022-09-13T09:53:24;23.88;;;22.20;;
22881;SDS011;11608;50.894;5.296;2022-09-13T09:56:03;24.15;;;22.30;;
22881;SDS011;11608;50.894;5.296;2022-09-13T09:58:40;23.35;;;21.45;;
22881;SDS011;11608;50.894;5.296;2022-09-13T10:01:21;24.73;;;23.02;;
22881;SDS011;11608;50.894;5.296;2022-09-13T10:04:33;25.15;;;23.23;;
22881;SDS011;11608;50.894;5.296;2022-09-13T10:06:38;22.40;;;20.77;;
22881;SDS011;11608;50.894;5.296;2022-09-13T10:09:05;23.85;;;21.88;;
22881;SDS011;11608;50.894;5.296;2022-09-13T10:11:45;22.48;;;21.08;;
22881;SDS011;11608;50.894;5.296;2022-09-13T10:14:26;22.75;;;21.15;;
22881;SDS011;11608;50.894;5.296;2022-09-13T10:19:37;22.63;;;21.13;;
22881;SDS011;11608;50.894;5.296;2022-09-13T10:22:04;23.50;;;21.83;;
22881;SDS011;11608;50.894;5.296;2022-09-13T10:24:31;24.45;;;22.52;;
22881;SDS011;11608;50.894;5.296;2022-09-13T10:26:57;25.50;;;23.23;;
22881;SDS011;11608;50.894;5.296;2022-09-13T10:29:25;23.08;;;21.52;;
22881;SDS011;11608;50.894;5.296;2022-09-13T10:31:51;23.70;;;22.10;;
22881;SDS011;11608;50.894;5.296;2022-09-13T10:34:20;23.48;;;21.77;;
22881;SDS011;11608;50.894;5.296;2022-09-13T10:36:52;24.95;;;23.15;;
22881;SDS011;11608;50.894;5.296;2022-09-13T10:39:20;24.17;;;22.45;;
22881;SDS011;11608;50.894;5.296;2022-09-13T10:41:57;24.27;;;22.38;;
22881;SDS011;11608;50.894;5.296;2022-09-13T10:44:31;24.23;;;22.40;;
22881;SDS011;11608;50.894;5.296;2022-09-13T10:46:58;23.90;;;22.08;;
22881;SDS011;11608;50.894;5.296;2022-09-13T10:52:23;23.55;;;21.95;;
22881;SDS011;11608;50.894;5.296;2022-09-13T10:54:49;23.75;;;22.08;;
22881;SDS011;11608;50.894;5.296;2022-09-13T10:57:26;23.17;;;21.48;;
22881;SDS011;11608;50.894;5.296;2022-09-13T10:59:55;23.60;;;21.55;;
22881;SDS011;11608;50.894;5.296;2022-09-13T11:04:55;22.90;;;21.02;;
22881;SDS011;11608;50.894;5.296;2022-09-13T11:07:42;22.42;;;20.70;;
22881;SDS011;11608;50.894;5.296;2022-09-13T11:12:52;22.90;;;21.33;;
22881;SDS011;11608;50.894;5.296;2022-09-13T11:15:25;23.20;;;21.50;;
22881;SDS011;11608;50.894;5.296;2022-09-13T11:17:58;22.38;;;20.77;;
22881;SDS011;11608;50.894;5.296;2022-09-13T11:30:30;23.13;;;21.42;;
22881;SDS011;11608;50.894;5.296;2022-09-13T11:33:37;23.65;;;21.80;;
22881;SDS011;11608;50.894;5.296;2022-09-13T11:49:10;25.42;;;23.27;;
22881;SDS011;11608;50.894;5.296;2022-09-13T11:51:50;25.40;;;23.77;;
22881;SDS011;11608;50.894;5.296;2022-09-13T11:56:48;23.40;;;21.60;;
22881;SDS011;11608;50.894;5.296;2022-09-13T12:01:43;23.45;;;21.75;;
22881;SDS011;11608;50.894;5.296;2022-09-13T12:04:12;23.60;;;22.10;;
22881;SDS011;11608;50.894;5.296;2022-09-13T12:06:45;23.30;;;21.70;;
22881;SDS011;11608;50.894;5.296;2022-09-13T12:09:23;23.63;;;22.02;;
22881;SDS011;11608;50.894;5.296;2022-09-13T12:11:52;24.15;;;22.48;;
22881;SDS011;11608;50.894;5.296;2022-09-13T12:14:22;24.38;;;22.48;;
22881;SDS011;11608;50.894;5.296;2022-09-13T12:16:51;24.15;;;22.48;;
22881;SDS011;11608;50.894;5.296;2022-09-13T12:21:48;22.30;;;20.80;;
22881;SDS011;11608;50.894;5.296;2022-09-13T12:24:20;22.60;;;21.20;;
22881;SDS011;11608;50.894;5.296;2022-09-13T12:26:49;22.92;;;21.45;;
22881;SDS011;11608;50.894;5.296;2022-09-13T12:31:46;21.48;;;19.85;;
22881;SDS011;11608;50.894;5.296;2022-09-13T12:34:17;21.95;;;20.65;;
22881;SDS011;11608;50.894;5.296;2022-09-13T12:39:30;21.63;;;20.13;;
22881;SDS011;11608;50.894;5.296;2022-09-13T12:44:40;23.15;;;21.30;;
22881;SDS011;11608;50.894;5.296;2022-09-13T12:50:07;22.40;;;20.77;;
22881;SDS011;11608;50.894;5.296;2022-09-13T12:52:39;22.52;;;21.00;;
22881;SDS011;11608;50.894;5.296;2022-09-13T12:55:25;24.48;;;22.98;;
22881;SDS011;11608;50.894;5.296;2022-09-13T13:00:44;23.25;;;21.85;;
22881;SDS011;11608;50.894;5.296;2022-09-13T13:03:13;24.33;;;22.92;;
22881;SDS011;11608;50.894;5.296;2022-09-13T13:05:42;23.50;;;22.17;;
22881;SDS011;11608;50.894;5.296;2022-09-13T13:10:45;23.40;;;22.00;;
22881;SDS011;11608;50.894;5.296;2022-09-13T13:13:29;22.90;;;21.23;;
22881;SDS011;11608;50.894;5.296;2022-09-13T13:15:58;23.05;;;21.50;;
22881;SDS011;11608;50.894;5.296;2022-09-13T13:18:42;23.02;;;21.52;;
22881;SDS011;11608;50.894;5.296;2022-09-13T13:21:25;23.30;;;21.38;;
22881;SDS011;11608;50.894;5.296;2022-09-13T13:31:46;24.15;;;22.35;;
22881;SDS011;11608;50.894;5.296;2022-09-13T13:39:33;23.52;;;21.83;;
22881;SDS011;11608;50.894;5.296;2022-09-13T13:42:01;23.65;;;22.05;;
22881;SDS011;11608;50.894;5.296;2022-09-13T13:49:40;22.00;;;20.38;;
22881;SDS011;11608;50.894;5.296;2022-09-13T14:03:15;22.40;;;20.60;;
22881;SDS011;11608;50.894;5.296;2022-09-13T14:05:27;21.80;;;20.40;;
22881;SDS011;11608;50.894;5.296;2022-09-13T14:13:18;22.65;;;21.00;;
22881;SDS011;11608;50.894;5.296;2022-09-13T14:15:49;22.90;;;21.02;;
22881;SDS011;11608;50.894;5.296;2022-09-13T14:20:57;23.20;;;21.50;;
22881;SDS011;11608;50.894;5.296;2022-09-13T14:23:23;22.70;;;20.90;;
22881;SDS011;11608;50.894;5.296;2022-09-13T14:25:56;22.48;;;20.88;;
22881;SDS011;11608;50.894;5.296;2022-09-13T14:28:23;22.10;;;20.50;;
22881;SDS011;11608;50.894;5.296;2022-09-13T14:30:56;23.33;;;21.27;;
22881;SDS011;11608;50.894;5.296;2022-09-13T14:33:26;23.17;;;21.42;;
22881;SDS011;11608;50.894;5.296;2022-09-13T14:36:05;23.10;;;21.20;;
22881;SDS011;11608;50.894;5.296;2022-09-13T14:38:33;23.35;;;21.55;;
22881;SDS011;11608;50.894;5.296;2022-09-13T14:41:10;23.35;;;21.55;;
22881;SDS011;11608;50.894;5.296;2022-09-13T14:43:37;22.02;;;20.38;;
22881;SDS011;11608;50.894;5.296;2022-09-13T14:46:05;22.30;;;20.70;;
22881;SDS011;11608;50.894;5.296;2022-09-13T14:51:29;21.75;;;20.30;;
22881;SDS011;11608;50.894;5.296;2022-09-13T14:54:05;22.27;;;20.88;;
22881;SDS011;11608;50.894;5.296;2022-09-13T14:56:40;23.70;;;22.10;;
22881;SDS011;11608;50.894;5.296;2022-09-13T14:59:15;24.40;;;22.65;;
22881;SDS011;11608;50.894;5.296;2022-09-13T15:01:43;23.85;;;21.88;;
22881;SDS011;11608;50.894;5.296;2022-09-13T15:04:09;23.38;;;21.67;;
22881;SDS011;11608;50.894;5.296;2022-09-13T15:06:36;23.60;;;21.80;;
22881;SDS011;11608;50.894;5.296;2022-09-13T15:16:50;23.55;;;21.85;;
22881;SDS011;11608;50.894;5.296;2022-09-13T15:21:48;24.42;;;22.55;;
22881;SDS011;11608;50.894;5.296;2022-09-13T15:24:25;23.42;;;21.70;;
22881;SDS011;11608;50.894;5.296;2022-09-13T15:27:00;24.52;;;22.50;;
22881;SDS011;11608;50.894;5.296;2022-09-13T15:29:26;23.52;;;21.83;;
22881;SDS011;11608;50.894;5.296;2022-09-13T15:31:57;24.95;;;22.95;;
22881;SDS011;11608;50.894;5.296;2022-09-13T15:34:23;24.38;;;22.38;;
22881;SDS011;11608;50.894;5.296;2022-09-13T15:39:27;23.23;;;21.38;;
22881;SDS011;11608;50.894;5.296;2022-09-13T15:41:58;23.83;;;21.95;;
22881;SDS011;11608;50.894;5.296;2022-09-13T15:44:28;24.02;;;22.02;;
22881;SDS011;11608;50.894;5.296;2022-09-13T15:46:58;23.25;;;21.38;;
22881;SDS011;11608;50.894;5.296;2022-09-13T15:49:29;24.42;;;22.45;;
22881;SDS011;11608;50.894;5.296;2022-09-13T15:51:59;25.90;;;23.77;;
22881;SDS011;11608;50.894;5.296;2022-09-13T15:54:33;23.77;;;21.75;;
22881;SDS011;11608;50.894;5.296;2022-09-13T15:57:00;23.65;;;21.95;;
22881;SDS011;11608;50.894;5.296;2022-09-13T15:59:26;23.98;;;21.90;;
22881;SDS011;11608;50.894;5.296;2022-09-13T16:01:53;23.70;;;22.00;;
22881;SDS011;11608;50.894;5.296;2022-09-13T16:04:19;23.77;;;22.15;;
22881;SDS011;11608;50.894;5.296;2022-09-13T16:06:45;23.38;;;21.58;;
22881;SDS011;11608;50.894;5.296;2022-09-13T16:09:15;23.27;;;21.77;;
22881;SDS011;11608;50.894;5.296;2022-09-13T16:11:42;24.13;;;22.33;;
22881;SDS011;11608;50.894;5.296;2022-09-13T16:14:08;23.40;;;21.70;;
22881;SDS011;11608;50.894;5.296;2022-09-13T16:16:34;23.40;;;21.70;;
22881;SDS011;11608;50.894;5.296;2022-09-13T16:19:00;24.75;;;23.00;;
22881;SDS011;11608;50.894;5.296;2022-09-13T16:21:26;24.60;;;22.65;;
22881;SDS011;11608;50.894;5.296;2022-09-13T16:23:53;25.63;;;23.65;;
22881;SDS011;11608;50.894;5.296;2022-09-13T16:26:19;25.55;;;23.52;;
22881;SDS011;11608;50.894;5.296;2022-09-13T16:28:45;25.75;;;23.95;;
22881;SDS011;11608;50.894;5.296;2022-09-13T16:31:11;25.55;;;23.70;;
22881;SDS011;11608;50.894;5.296;2022-09-13T16:33:40;26.95;;;24.88;;
22881;SDS011;11608;50.894;5.296;2022-09-13T16:36:07;26.90;;;24.95;;
22881;SDS011;11608;50.894;5.296;2022-09-13T16:38:35;30.38;;;28.05;;
22881;SDS011;11608;50.894;5.296;2022-09-13T16:41:03;28.20;;;25.75;;
22881;SDS011;11608;50.894;5.296;2022-09-13T16:43:29;27.15;;;25.20;;
22881;SDS011;11608;50.894;5.296;2022-09-13T16:45:57;25.95;;;23.75;;
22881;SDS011;11608;50.894;5.296;2022-09-13T16:48:23;26.48;;;24.52;;
22881;SDS011;11608;50.894;5.296;2022-09-13T16:50:49;24.77;;;23.08;;
22881;SDS011;11608;50.894;5.296;2022-09-13T16:53:16;23.65;;;22.02;;
22881;SDS011;11608;50.894;5.296;2022-09-13T16:55:42;25.77;;;23.98;;
22881;SDS011;11608;50.894;5.296;2022-09-13T16:58:09;23.63;;;22.02;;
22881;SDS011;11608;50.894;5.296;2022-09-13T17:00:36;24.85;;;22.88;;
22881;SDS011;11608;50.894;5.296;2022-09-13T17:03:02;23.75;;;22.05;;
22881;SDS011;11608;50.894;5.296;2022-09-13T17:05:28;24.73;;;22.92;;
22881;SDS011;11608;50.894;5.296;2022-09-13T17:07:54;25.27;;;23.33;;
22881;SDS011;11608;50.894;5.296;2022-09-13T17:10:20;24.85;;;23.05;;
22881;SDS011;11608;50.894;5.296;2022-09-13T17:12:46;26.40;;;24.40;;
22881;SDS011;11608;50.894;5.296;2022-09-13T17:15:13;25.63;;;23.83;;
22881;SDS011;11608;50.894;5.296;2022-09-13T17:17:39;26.67;;;24.67;;
22881;SDS011;11608;50.894;5.296;2022-09-13T17:20:07;24.40;;;22.65;;
22881;SDS011;11608;50.894;5.296;2022-09-13T17:22:34;24.50;;;22.52;;
22881;SDS011;11608;50.894;5.296;2022-09-13T17:25:01;25.00;;;23.02;;
22881;SDS011;11608;50.894;5.296;2022-09-13T17:27:27;24.88;;;23.38;;
22881;SDS011;11608;50.894;5.296;2022-09-13T17:29:53;25.73;;;23.73;;
22881;SDS011;11608;50.894;5.296;2022-09-13T17:32:19;27.98;;;25.77;;